sensor_id;sensor_type;location;lat;lon;timestamp;P1;durP1;ratioP1;P2;durP2;ratioP2
12631;SDS011;6381;45.748;12.106;2024-02-21T00:02:26;17.87;;;15.90;;
12631;SDS011;6381;45.748;12.106;2024-02-21T00:04:57;18.30;;;16.43;;
12631;SDS011;6381;45.748;12.106;2024-02-21T00:07:27;18.30;;;16.20;;
12631;SDS011;6381;45.748;12.106;2024-02-21T00:09:57;20.70;;;16.13;;
12631;SDS011;6381;45.748;12.106;2024-02-21T00:12:28;17.67;;;15.57;;
12631;SDS011;6381;45.748;12.106;2024-02-21T00:14:57;18.47;;;16.47;;
12631;SDS011;6381;45.748;12.106;2024-02-21T00:17:28;17.73;;;15.93;;
12631;SDS011;6381;45.748;12.106;2024-02-21T00:19:59;18.23;;;16.43;;
12631;SDS011;6381;45.748;12.106;2024-02-21T00:22:29;18.33;;;16.40;;
12631;SDS011;6381;45.748;12.106;2024-02-21T00:25:00;18.57;;;16.60;;
12631;SDS011;6381;45.748;12.106;2024-02-21T00:27:30;17.30;;;15.60;;
12631;SDS011;6381;45.748;12.106;2024-02-21T00:30:00;18.00;;;16.10;;
12631;SDS011;6381;45.748;12.106;2024-02-21T00:32:30;18.00;;;16.10;;
12631;SDS011;6381;45.748;12.106;2024-02-21T00:35:04;17.20;;;15.40;;
12631;SDS011;6381;45.748;12.106;2024-02-21T00:37:34;17.80;;;15.83;;
12631;SDS011;6381;45.748;12.106;2024-02-21T00:40:05;16.47;;;14.60;;
12631;SDS011;6381;45.748;12.106;2024-02-21T00:42:35;17.57;;;15.77;;
12631;SDS011;6381;45.748;12.106;2024-02-21T00:45:06;15.93;;;14.33;;
12631;SDS011;6381;45.748;12.106;2024-02-21T00:47:37;15.47;;;13.87;;
12631;SDS011;6381;45.748;12.106;2024-02-21T00:50:09;15.13;;;13.63;;
12631;SDS011;6381;45.748;12.106;2024-02-21T00:52:39;15.67;;;14.07;;
12631;SDS011;6381;45.748;12.106;2024-02-21T00:55:09;15.83;;;14.23;;
12631;SDS011;6381;45.748;12.106;2024-02-21T00:57:39;15.90;;;14.17;;
12631;SDS011;6381;45.748;12.106;2024-02-21T01:00:09;14.63;;;13.13;;
12631;SDS011;6381;45.748;12.106;2024-02-21T01:02:39;15.03;;;13.43;;
12631;SDS011;6381;45.748;12.106;2024-02-21T01:05:10;18.83;;;13.17;;
12631;SDS011;6381;45.748;12.106;2024-02-21T01:07:40;15.77;;;12.97;;
12631;SDS011;6381;45.748;12.106;2024-02-21T01:10:10;14.47;;;12.97;;
12631;SDS011;6381;45.748;12.106;2024-02-21T01:12:40;13.63;;;12.23;;
12631;SDS011;6381;45.748;12.106;2024-02-21T01:15:09;13.30;;;11.90;;
12631;SDS011;6381;45.748;12.106;2024-02-21T01:17:39;13.97;;;12.10;;
12631;SDS011;6381;45.748;12.106;2024-02-21T01:20:11;12.70;;;11.50;;
12631;SDS011;6381;45.748;12.106;2024-02-21T01:22:41;12.23;;;11.03;;
12631;SDS011;6381;45.748;12.106;2024-02-21T01:25:11;11.90;;;10.67;;
12631;SDS011;6381;45.748;12.106;2024-02-21T01:27:41;12.33;;;11.10;;
12631;SDS011;6381;45.748;12.106;2024-02-21T01:30:10;11.57;;;10.37;;
12631;SDS011;6381;45.748;12.106;2024-02-21T01:32:40;12.37;;;11.17;;
12631;SDS011;6381;45.748;12.106;2024-02-21T01:35:11;12.13;;;10.87;;
12631;SDS011;6381;45.748;12.106;2024-02-21T01:37:41;12.67;;;11.37;;
12631;SDS011;6381;45.748;12.106;2024-02-21T01:40:11;13.53;;;12.10;;
12631;SDS011;6381;45.748;12.106;2024-02-21T01:42:41;15.97;;;14.17;;
12631;SDS011;6381;45.748;12.106;2024-02-21T01:45:11;20.97;;;18.13;;
12631;SDS011;6381;45.748;12.106;2024-02-21T01:47:44;22.43;;;19.93;;
12631;SDS011;6381;45.748;12.106;2024-02-21T01:50:16;22.97;;;20.50;;
12631;SDS011;6381;45.748;12.106;2024-02-21T01:52:46;22.50;;;20.10;;
12631;SDS011;6381;45.748;12.106;2024-02-21T01:55:17;21.27;;;19.17;;
12631;SDS011;6381;45.748;12.106;2024-02-21T01:57:48;22.20;;;19.90;;
12631;SDS011;6381;45.748;12.106;2024-02-21T02:00:18;22.07;;;19.80;;
12631;SDS011;6381;45.748;12.106;2024-02-21T02:02:49;21.47;;;19.23;;
12631;SDS011;6381;45.748;12.106;2024-02-21T02:05:21;20.53;;;18.33;;
12631;SDS011;6381;45.748;12.106;2024-02-21T02:07:51;21.30;;;18.40;;
12631;SDS011;6381;45.748;12.106;2024-02-21T02:10:21;22.53;;;19.23;;
12631;SDS011;6381;45.748;12.106;2024-02-21T02:12:51;20.60;;;18.50;;
12631;SDS011;6381;45.748;12.106;2024-02-21T02:15:21;21.53;;;19.23;;
12631;SDS011;6381;45.748;12.106;2024-02-21T02:17:51;21.13;;;18.80;;
12631;SDS011;6381;45.748;12.106;2024-02-21T02:20:22;21.13;;;19.00;;
12631;SDS011;6381;45.748;12.106;2024-02-21T02:22:52;21.07;;;18.93;;
12631;SDS011;6381;45.748;12.106;2024-02-21T02:25:23;21.37;;;19.27;;
12631;SDS011;6381;45.748;12.106;2024-02-21T02:27:53;21.80;;;19.40;;
12631;SDS011;6381;45.748;12.106;2024-02-21T02:30:23;23.60;;;20.97;;
12631;SDS011;6381;45.748;12.106;2024-02-21T02:32:52;22.00;;;19.70;;
12631;SDS011;6381;45.748;12.106;2024-02-21T02:35:22;23.17;;;20.27;;
12631;SDS011;6381;45.748;12.106;2024-02-21T02:37:52;22.00;;;19.70;;
12631;SDS011;6381;45.748;12.106;2024-02-21T02:40:24;20.60;;;18.50;;
12631;SDS011;6381;45.748;12.106;2024-02-21T02:42:53;19.57;;;17.53;;
12631;SDS011;6381;45.748;12.106;2024-02-21T02:45:23;19.70;;;17.70;;
12631;SDS011;6381;45.748;12.106;2024-02-21T02:47:54;19.33;;;17.30;;
12631;SDS011;6381;45.748;12.106;2024-02-21T02:50:24;20.10;;;16.97;;
12631;SDS011;6381;45.748;12.106;2024-02-21T02:52:54;18.33;;;16.40;;
12631;SDS011;6381;45.748;12.106;2024-02-21T02:55:26;19.13;;;17.17;;
12631;SDS011;6381;45.748;12.106;2024-02-21T02:57:56;18.37;;;16.37;;
12631;SDS011;6381;45.748;12.106;2024-02-21T03:00:27;17.73;;;15.83;;
12631;SDS011;6381;45.748;12.106;2024-02-21T03:02:56;18.20;;;16.03;;
12631;SDS011;6381;45.748;12.106;2024-02-21T03:05:32;18.10;;;16.17;;
12631;SDS011;6381;45.748;12.106;2024-02-21T03:08:02;17.67;;;15.87;;
12631;SDS011;6381;45.748;12.106;2024-02-21T03:10:36;18.77;;;16.57;;
12631;SDS011;6381;45.748;12.106;2024-02-21T03:13:06;18.20;;;16.30;;
12631;SDS011;6381;45.748;12.106;2024-02-21T03:15:35;18.03;;;15.90;;
12631;SDS011;6381;45.748;12.106;2024-02-21T03:18:05;17.20;;;15.07;;
12631;SDS011;6381;45.748;12.106;2024-02-21T03:20:35;16.97;;;15.27;;
12631;SDS011;6381;45.748;12.106;2024-02-21T03:23:05;18.60;;;16.63;;
12631;SDS011;6381;45.748;12.106;2024-02-21T03:25:36;20.00;;;17.90;;
12631;SDS011;6381;45.748;12.106;2024-02-21T03:28:06;17.93;;;16.13;;
12631;SDS011;6381;45.748;12.106;2024-02-21T03:30:36;17.77;;;16.07;;
12631;SDS011;6381;45.748;12.106;2024-02-21T03:33:05;16.80;;;15.20;;
12631;SDS011;6381;45.748;12.106;2024-02-21T03:35:35;16.27;;;14.67;;
12631;SDS011;6381;45.748;12.106;2024-02-21T03:38:05;17.20;;;15.50;;
12631;SDS011;6381;45.748;12.106;2024-02-21T03:40:36;17.97;;;16.07;;
12631;SDS011;6381;45.748;12.106;2024-02-21T03:43:06;17.80;;;16.00;;
12631;SDS011;6381;45.748;12.106;2024-02-21T03:45:36;16.67;;;14.87;;
12631;SDS011;6381;45.748;12.106;2024-02-21T03:48:06;17.00;;;15.00;;
12631;SDS011;6381;45.748;12.106;2024-02-21T03:50:36;16.50;;;14.80;;
12631;SDS011;6381;45.748;12.106;2024-02-21T03:53:06;15.63;;;13.93;;
12631;SDS011;6381;45.748;12.106;2024-02-21T03:55:38;17.07;;;15.47;;
12631;SDS011;6381;45.748;12.106;2024-02-21T03:58:08;16.90;;;14.77;;
12631;SDS011;6381;45.748;12.106;2024-02-21T04:00:37;17.27;;;15.50;;
12631;SDS011;6381;45.748;12.106;2024-02-21T04:03:08;17.70;;;15.90;;
12631;SDS011;6381;45.748;12.106;2024-02-21T04:05:38;17.60;;;15.77;;
12631;SDS011;6381;45.748;12.106;2024-02-21T04:08:08;16.17;;;14.57;;
12631;SDS011;6381;45.748;12.106;2024-02-21T04:10:39;16.47;;;14.83;;
12631;SDS011;6381;45.748;12.106;2024-02-21T04:13:09;16.83;;;15.03;;
12631;SDS011;6381;45.748;12.106;2024-02-21T04:15:40;16.13;;;14.47;;
12631;SDS011;6381;45.748;12.106;2024-02-21T04:18:10;16.37;;;14.10;;
12631;SDS011;6381;45.748;12.106;2024-02-21T04:20:40;17.10;;;15.30;;
12631;SDS011;6381;45.748;12.106;2024-02-21T04:23:09;16.27;;;14.67;;
12631;SDS011;6381;45.748;12.106;2024-02-21T04:25:41;17.40;;;15.57;;
12631;SDS011;6381;45.748;12.106;2024-02-21T04:28:11;19.23;;;17.17;;
12631;SDS011;6381;45.748;12.106;2024-02-21T04:30:41;19.90;;;17.10;;
12631;SDS011;6381;45.748;12.106;2024-02-21T04:33:10;16.70;;;14.80;;
12631;SDS011;6381;45.748;12.106;2024-02-21T04:35:40;15.73;;;13.43;;
12631;SDS011;6381;45.748;12.106;2024-02-21T04:38:10;15.23;;;13.60;;
12631;SDS011;6381;45.748;12.106;2024-02-21T04:40:41;14.97;;;13.37;;
12631;SDS011;6381;45.748;12.106;2024-02-21T04:43:11;14.50;;;12.60;;
12631;SDS011;6381;45.748;12.106;2024-02-21T04:45:41;14.33;;;12.70;;
12631;SDS011;6381;45.748;12.106;2024-02-21T04:48:11;15.10;;;13.47;;
12631;SDS011;6381;45.748;12.106;2024-02-21T04:50:41;18.80;;;15.57;;
12631;SDS011;6381;45.748;12.106;2024-02-21T04:53:12;20.10;;;16.07;;
12631;SDS011;6381;45.748;12.106;2024-02-21T04:55:43;16.10;;;13.83;;
12631;SDS011;6381;45.748;12.106;2024-02-21T04:58:13;14.47;;;12.97;;
12631;SDS011;6381;45.748;12.106;2024-02-21T05:00:44;14.53;;;13.03;;
12631;SDS011;6381;45.748;12.106;2024-02-21T05:03:14;13.40;;;12.10;;
12631;SDS011;6381;45.748;12.106;2024-02-21T05:05:44;11.67;;;10.57;;
12631;SDS011;6381;45.748;12.106;2024-02-21T05:08:16;13.43;;;11.47;;
12631;SDS011;6381;45.748;12.106;2024-02-21T05:10:48;15.20;;;11.20;;
12631;SDS011;6381;45.748;12.106;2024-02-21T05:13:18;14.73;;;11.37;;
12631;SDS011;6381;45.748;12.106;2024-02-21T05:15:48;12.63;;;10.97;;
12631;SDS011;6381;45.748;12.106;2024-02-21T05:18:18;12.70;;;11.40;;
12631;SDS011;6381;45.748;12.106;2024-02-21T05:20:48;15.30;;;11.30;;
12631;SDS011;6381;45.748;12.106;2024-02-21T05:23:18;12.40;;;11.20;;
12631;SDS011;6381;45.748;12.106;2024-02-21T05:25:49;13.37;;;11.97;;
12631;SDS011;6381;45.748;12.106;2024-02-21T05:28:20;14.07;;;11.83;;
12631;SDS011;6381;45.748;12.106;2024-02-21T05:30:50;12.80;;;11.43;;
12631;SDS011;6381;45.748;12.106;2024-02-21T05:33:20;12.57;;;11.27;;
12631;SDS011;6381;45.748;12.106;2024-02-21T05:35:50;12.77;;;11.47;;
12631;SDS011;6381;45.748;12.106;2024-02-21T05:38:20;14.33;;;12.17;;
12631;SDS011;6381;45.748;12.106;2024-02-21T05:40:51;12.70;;;11.40;;
12631;SDS011;6381;45.748;12.106;2024-02-21T05:43:21;13.90;;;11.70;;
12631;SDS011;6381;45.748;12.106;2024-02-21T05:45:50;12.40;;;11.13;;
12631;SDS011;6381;45.748;12.106;2024-02-21T05:48:20;13.43;;;11.87;;
12631;SDS011;6381;45.748;12.106;2024-02-21T05:50:51;14.50;;;11.60;;
12631;SDS011;6381;45.748;12.106;2024-02-21T05:53:20;13.20;;;11.90;;
12631;SDS011;6381;45.748;12.106;2024-02-21T05:55:52;14.20;;;12.70;;
12631;SDS011;6381;45.748;12.106;2024-02-21T05:58:24;14.70;;;12.60;;
12631;SDS011;6381;45.748;12.106;2024-02-21T06:00:54;14.90;;;13.33;;
12631;SDS011;6381;45.748;12.106;2024-02-21T06:03:24;14.07;;;12.57;;
12631;SDS011;6381;45.748;12.106;2024-02-21T06:05:54;16.93;;;13.00;;
12631;SDS011;6381;45.748;12.106;2024-02-21T06:08:25;17.23;;;13.80;;
12631;SDS011;6381;45.748;12.106;2024-02-21T06:10:56;15.93;;;14.20;;
12631;SDS011;6381;45.748;12.106;2024-02-21T06:13:26;15.47;;;13.30;;
12631;SDS011;6381;45.748;12.106;2024-02-21T06:15:57;16.00;;;14.17;;
12631;SDS011;6381;45.748;12.106;2024-02-21T06:18:27;18.13;;;15.13;;
12631;SDS011;6381;45.748;12.106;2024-02-21T06:20:57;18.43;;;15.83;;
12631;SDS011;6381;45.748;12.106;2024-02-21T06:23:27;21.37;;;16.63;;
12631;SDS011;6381;45.748;12.106;2024-02-21T06:25:58;20.03;;;17.57;;
12631;SDS011;6381;45.748;12.106;2024-02-21T06:28:29;22.67;;;17.83;;
12631;SDS011;6381;45.748;12.106;2024-02-21T06:30:59;24.40;;;19.13;;
12631;SDS011;6381;45.748;12.106;2024-02-21T06:33:29;24.60;;;19.60;;
12631;SDS011;6381;45.748;12.106;2024-02-21T06:36:00;27.13;;;20.27;;
12631;SDS011;6381;45.748;12.106;2024-02-21T06:38:31;23.13;;;20.63;;
12631;SDS011;6381;45.748;12.106;2024-02-21T06:41:03;24.67;;;20.17;;
12631;SDS011;6381;45.748;12.106;2024-02-21T06:43:33;26.23;;;21.33;;
12631;SDS011;6381;45.748;12.106;2024-02-21T06:46:04;27.83;;;22.70;;
12631;SDS011;6381;45.748;12.106;2024-02-21T06:48:34;31.17;;;22.67;;
12631;SDS011;6381;45.748;12.106;2024-02-21T06:51:04;31.10;;;22.33;;
12631;SDS011;6381;45.748;12.106;2024-02-21T06:53:39;29.80;;;21.70;;
12631;SDS011;6381;45.748;12.106;2024-02-21T06:56:13;46.40;;;23.60;;
12631;SDS011;6381;45.748;12.106;2024-02-21T06:58:44;50.03;;;24.93;;
12631;SDS011;6381;45.748;12.106;2024-02-21T07:01:14;44.80;;;24.93;;
12631;SDS011;6381;45.748;12.106;2024-02-21T07:03:45;44.43;;;23.83;;
12631;SDS011;6381;45.748;12.106;2024-02-21T07:06:15;42.03;;;22.80;;
12631;SDS011;6381;45.748;12.106;2024-02-21T07:08:45;41.80;;;23.07;;
12631;SDS011;6381;45.748;12.106;2024-02-21T07:11:16;30.27;;;21.10;;
12631;SDS011;6381;45.748;12.106;2024-02-21T07:13:46;29.03;;;21.20;;
12631;SDS011;6381;45.748;12.106;2024-02-21T07:16:17;34.33;;;21.47;;
12631;SDS011;6381;45.748;12.106;2024-02-21T07:18:49;23.23;;;19.60;;
12631;SDS011;6381;45.748;12.106;2024-02-21T07:21:19;30.00;;;19.67;;
12631;SDS011;6381;45.748;12.106;2024-02-21T07:23:49;28.23;;;19.77;;
12631;SDS011;6381;45.748;12.106;2024-02-21T07:26:20;27.33;;;19.63;;
12631;SDS011;6381;45.748;12.106;2024-02-21T07:28:50;25.80;;;20.63;;
12631;SDS011;6381;45.748;12.106;2024-02-21T07:31:20;27.40;;;18.37;;
12631;SDS011;6381;45.748;12.106;2024-02-21T07:33:50;22.23;;;18.43;;
12631;SDS011;6381;45.748;12.106;2024-02-21T07:36:25;21.97;;;17.97;;
12631;SDS011;6381;45.748;12.106;2024-02-21T07:38:57;20.27;;;17.00;;
12631;SDS011;6381;45.748;12.106;2024-02-21T07:41:28;21.40;;;16.97;;
12631;SDS011;6381;45.748;12.106;2024-02-21T07:43:58;18.07;;;16.13;;
12631;SDS011;6381;45.748;12.106;2024-02-21T07:46:28;17.10;;;15.20;;
12631;SDS011;6381;45.748;12.106;2024-02-21T07:49:00;20.77;;;17.10;;
12631;SDS011;6381;45.748;12.106;2024-02-21T07:51:30;21.03;;;18.00;;
12631;SDS011;6381;45.748;12.106;2024-02-21T07:53:59;20.17;;;17.03;;
12631;SDS011;6381;45.748;12.106;2024-02-21T07:56:30;17.93;;;15.50;;
12631;SDS011;6381;45.748;12.106;2024-02-21T07:59:00;17.00;;;14.13;;
12631;SDS011;6381;45.748;12.106;2024-02-21T08:01:30;17.67;;;13.30;;
12631;SDS011;6381;45.748;12.106;2024-02-21T08:04:00;18.00;;;12.47;;
12631;SDS011;6381;45.748;12.106;2024-02-21T08:06:32;12.30;;;11.00;;
12631;SDS011;6381;45.748;12.106;2024-02-21T08:09:02;15.93;;;11.23;;
12631;SDS011;6381;45.748;12.106;2024-02-21T08:11:33;12.53;;;11.23;;
12631;SDS011;6381;45.748;12.106;2024-02-21T08:14:03;11.70;;;10.00;;
12631;SDS011;6381;45.748;12.106;2024-02-21T08:16:33;11.87;;;10.00;;
12631;SDS011;6381;45.748;12.106;2024-02-21T08:19:03;12.43;;;9.93;;
12631;SDS011;6381;45.748;12.106;2024-02-21T08:21:32;11.87;;;10.07;;
12631;SDS011;6381;45.748;12.106;2024-02-21T08:24:02;10.30;;;9.27;;
12631;SDS011;6381;45.748;12.106;2024-02-21T08:26:33;11.10;;;9.30;;
12631;SDS011;6381;45.748;12.106;2024-02-21T08:29:03;12.70;;;10.17;;
12631;SDS011;6381;45.748;12.106;2024-02-21T08:31:33;10.40;;;9.30;;
12631;SDS011;6381;45.748;12.106;2024-02-21T08:34:03;13.27;;;9.43;;
12631;SDS011;6381;45.748;12.106;2024-02-21T08:36:33;11.30;;;9.40;;
12631;SDS011;6381;45.748;12.106;2024-02-21T08:39:03;13.87;;;9.40;;
12631;SDS011;6381;45.748;12.106;2024-02-21T08:41:35;10.20;;;8.73;;
12631;SDS011;6381;45.748;12.106;2024-02-21T08:44:23;8.53;;;7.73;;
12631;SDS011;6381;45.748;12.106;2024-02-21T08:46:54;9.27;;;8.27;;
12631;SDS011;6381;45.748;12.106;2024-02-21T08:49:24;10.93;;;7.57;;
12631;SDS011;6381;45.748;12.106;2024-02-21T08:52:01;7.73;;;6.80;;
12631;SDS011;6381;45.748;12.106;2024-02-21T08:54:31;8.37;;;6.50;;
12631;SDS011;6381;45.748;12.106;2024-02-21T08:57:02;10.03;;;6.70;;
12631;SDS011;6381;45.748;12.106;2024-02-21T08:59:32;7.63;;;5.90;;
12631;SDS011;6381;45.748;12.106;2024-02-21T09:02:02;7.27;;;5.77;;
12631;SDS011;6381;45.748;12.106;2024-02-21T09:04:34;5.90;;;5.40;;
12631;SDS011;6381;45.748;12.106;2024-02-21T09:07:04;7.77;;;6.43;;
12631;SDS011;6381;45.748;12.106;2024-02-21T09:09:34;7.53;;;6.07;;
12631;SDS011;6381;45.748;12.106;2024-02-21T09:12:07;5.80;;;5.07;;
12631;SDS011;6381;45.748;12.106;2024-02-21T09:14:37;5.17;;;4.67;;
12631;SDS011;6381;45.748;12.106;2024-02-21T09:17:06;6.97;;;6.10;;
12631;SDS011;6381;45.748;12.106;2024-02-21T09:19:36;8.63;;;5.73;;
12631;SDS011;6381;45.748;12.106;2024-02-21T09:22:06;9.47;;;6.70;;
12631;SDS011;6381;45.748;12.106;2024-02-21T09:24:36;6.47;;;5.73;;
12631;SDS011;6381;45.748;12.106;2024-02-21T09:27:07;6.43;;;5.10;;
12631;SDS011;6381;45.748;12.106;2024-02-21T09:29:37;6.00;;;5.50;;
12631;SDS011;6381;45.748;12.106;2024-02-21T09:32:07;6.73;;;4.77;;
12631;SDS011;6381;45.748;12.106;2024-02-21T09:34:38;6.13;;;5.20;;
12631;SDS011;6381;45.748;12.106;2024-02-21T09:37:08;6.77;;;6.07;;
12631;SDS011;6381;45.748;12.106;2024-02-21T09:39:38;6.40;;;5.40;;
12631;SDS011;6381;45.748;12.106;2024-02-21T09:42:10;6.73;;;5.67;;
12631;SDS011;6381;45.748;12.106;2024-02-21T09:44:40;7.70;;;5.40;;
12631;SDS011;6381;45.748;12.106;2024-02-21T09:47:12;7.73;;;5.63;;
12631;SDS011;6381;45.748;12.106;2024-02-21T09:49:51;6.10;;;4.57;;
12631;SDS011;6381;45.748;12.106;2024-02-21T09:52:24;5.43;;;4.93;;
12631;SDS011;6381;45.748;12.106;2024-02-21T09:54:57;4.90;;;4.40;;
12631;SDS011;6381;45.748;12.106;2024-02-21T09:57:31;5.77;;;5.20;;
12631;SDS011;6381;45.748;12.106;2024-02-21T10:00:01;6.90;;;5.27;;
12631;SDS011;6381;45.748;12.106;2024-02-21T10:02:39;6.15;;;4.60;;
12631;SDS011;6381;45.748;12.106;2024-02-21T10:05:08;13.13;;;7.87;;
12631;SDS011;6381;45.748;12.106;2024-02-21T10:07:38;7.63;;;5.28;;
12631;SDS011;6381;45.748;12.106;2024-02-21T10:10:08;12.57;;;6.90;;
12631;SDS011;6381;45.748;12.106;2024-02-21T10:12:49;6.82;;;4.80;;
12631;SDS011;6381;45.748;12.106;2024-02-21T10:15:22;6.72;;;4.93;;
12631;SDS011;6381;45.748;12.106;2024-02-21T10:17:58;6.85;;;5.13;;
12631;SDS011;6381;45.748;12.106;2024-02-21T10:20:28;7.80;;;4.18;;
12631;SDS011;6381;45.748;12.106;2024-02-21T10:23:02;10.73;;;4.45;;
12631;SDS011;6381;45.748;12.106;2024-02-21T10:25:36;4.80;;;4.30;;
12631;SDS011;6381;45.748;12.106;2024-02-21T10:28:12;6.70;;;4.63;;
12631;SDS011;6381;45.748;12.106;2024-02-21T10:30:49;5.72;;;4.30;;
12631;SDS011;6381;45.748;12.106;2024-02-21T10:33:19;6.05;;;4.43;;
12631;SDS011;6381;45.748;12.106;2024-02-21T10:35:51;5.32;;;4.57;;
12631;SDS011;6381;45.748;12.106;2024-02-21T10:38:22;5.13;;;3.83;;
12631;SDS011;6381;45.748;12.106;2024-02-21T10:40:52;7.40;;;3.65;;
12631;SDS011;6381;45.748;12.106;2024-02-21T10:43:28;5.18;;;4.35;;
12631;SDS011;6381;45.748;12.106;2024-02-21T10:46:00;4.32;;;3.88;;
12631;SDS011;6381;45.748;12.106;2024-02-21T10:48:39;8.32;;;3.90;;
12631;SDS011;6381;45.748;12.106;2024-02-21T10:51:14;5.85;;;3.90;;
12631;SDS011;6381;45.748;12.106;2024-02-21T10:53:50;4.43;;;4.00;;
12631;SDS011;6381;45.748;12.106;2024-02-21T10:56:28;4.38;;;3.88;;
12631;SDS011;6381;45.748;12.106;2024-02-21T10:59:05;4.65;;;3.72;;
12631;SDS011;6381;45.748;12.106;2024-02-21T11:01:35;5.75;;;3.95;;
12631;SDS011;6381;45.748;12.106;2024-02-21T11:04:06;5.80;;;3.55;;
12631;SDS011;6381;45.748;12.106;2024-02-21T11:06:38;4.68;;;3.30;;
12631;SDS011;6381;45.748;12.106;2024-02-21T11:09:09;6.03;;;3.30;;
12631;SDS011;6381;45.748;12.106;2024-02-21T11:11:40;6.80;;;3.72;;
12631;SDS011;6381;45.748;12.106;2024-02-21T11:14:17;3.70;;;3.28;;
12631;SDS011;6381;45.748;12.106;2024-02-21T11:16:49;4.78;;;4.30;;
12631;SDS011;6381;45.748;12.106;2024-02-21T11:19:20;4.95;;;4.20;;
12631;SDS011;6381;45.748;12.106;2024-02-21T11:21:51;4.28;;;3.88;;
12631;SDS011;6381;45.748;12.106;2024-02-21T11:24:25;4.45;;;3.85;;
12631;SDS011;6381;45.748;12.106;2024-02-21T11:27:07;4.45;;;4.05;;
12631;SDS011;6381;45.748;12.106;2024-02-21T11:29:43;4.38;;;3.88;;
12631;SDS011;6381;45.748;12.106;2024-02-21T11:32:14;4.70;;;4.18;;
12631;SDS011;6381;45.748;12.106;2024-02-21T11:37:36;5.22;;;4.72;;
12631;SDS011;6381;45.748;12.106;2024-02-21T11:40:07;6.72;;;4.47;;
12631;SDS011;6381;45.748;12.106;2024-02-21T11:42:39;7.03;;;5.40;;
12631;SDS011;6381;45.748;12.106;2024-02-21T11:45:10;6.03;;;5.40;;
12631;SDS011;6381;45.748;12.106;2024-02-21T11:47:43;6.38;;;5.78;;
12631;SDS011;6381;45.748;12.106;2024-02-21T11:50:14;8.07;;;7.28;;
12631;SDS011;6381;45.748;12.106;2024-02-21T11:52:48;7.40;;;6.57;;
12631;SDS011;6381;45.748;12.106;2024-02-21T11:55:18;8.65;;;7.70;;
12631;SDS011;6381;45.748;12.106;2024-02-21T11:57:48;9.45;;;7.55;;
12631;SDS011;6381;45.748;12.106;2024-02-21T12:00:20;8.45;;;7.45;;
12631;SDS011;6381;45.748;12.106;2024-02-21T12:02:51;8.52;;;7.65;;
12631;SDS011;6381;45.748;12.106;2024-02-21T12:05:22;8.52;;;7.63;;
12631;SDS011;6381;45.748;12.106;2024-02-21T12:07:56;9.68;;;8.52;;
12631;SDS011;6381;45.748;12.106;2024-02-21T12:10:26;10.90;;;8.63;;
12631;SDS011;6381;45.748;12.106;2024-02-21T12:13:04;9.57;;;7.68;;
12631;SDS011;6381;45.748;12.106;2024-02-21T12:15:38;8.38;;;7.50;;
12631;SDS011;6381;45.748;12.106;2024-02-21T12:18:09;10.40;;;8.00;;
12631;SDS011;6381;45.748;12.106;2024-02-21T12:20:42;10.57;;;9.50;;
12631;SDS011;6381;45.748;12.106;2024-02-21T12:23:13;10.10;;;9.10;;
12631;SDS011;6381;45.748;12.106;2024-02-21T12:25:43;11.15;;;10.00;;
12631;SDS011;6381;45.748;12.106;2024-02-21T12:28:13;11.13;;;9.90;;
12631;SDS011;6381;45.748;12.106;2024-02-21T12:30:47;10.52;;;9.43;;
12631;SDS011;6381;45.748;12.106;2024-02-21T12:33:17;13.23;;;9.45;;
12631;SDS011;6381;45.748;12.106;2024-02-21T12:35:47;11.00;;;8.82;;
12631;SDS011;6381;45.748;12.106;2024-02-21T12:38:18;10.60;;;9.50;;
12631;SDS011;6381;45.748;12.106;2024-02-21T12:40:48;12.48;;;10.15;;
12631;SDS011;6381;45.748;12.106;2024-02-21T12:43:17;9.57;;;8.57;;
12631;SDS011;6381;45.748;12.106;2024-02-21T12:45:49;11.25;;;10.02;;
12631;SDS011;6381;45.748;12.106;2024-02-21T12:48:17;11.48;;;10.27;;
12631;SDS011;6381;45.748;12.106;2024-02-21T12:50:48;19.98;;;16.58;;
12631;SDS011;6381;45.748;12.106;2024-02-21T12:53:19;16.55;;;14.48;;
12631;SDS011;6381;45.748;12.106;2024-02-21T12:55:59;15.90;;;13.77;;
12631;SDS011;6381;45.748;12.106;2024-02-21T12:58:29;15.27;;;13.00;;
12631;SDS011;6381;45.748;12.106;2024-02-21T13:01:01;16.00;;;14.18;;
12631;SDS011;6381;45.748;12.106;2024-02-21T13:03:30;17.77;;;14.90;;
12631;SDS011;6381;45.748;12.106;2024-02-21T13:06:00;17.60;;;15.18;;
12631;SDS011;6381;45.748;12.106;2024-02-21T13:08:30;15.32;;;13.73;;
12631;SDS011;6381;45.748;12.106;2024-02-21T13:11:02;15.68;;;13.02;;
12631;SDS011;6381;45.748;12.106;2024-02-21T13:13:32;18.00;;;13.68;;
12631;SDS011;6381;45.748;12.106;2024-02-21T13:16:04;20.73;;;18.35;;
12631;SDS011;6381;45.748;12.106;2024-02-21T13:18:35;18.42;;;16.23;;
12631;SDS011;6381;45.748;12.106;2024-02-21T13:21:07;18.33;;;14.90;;
12631;SDS011;6381;45.748;12.106;2024-02-21T13:23:37;16.70;;;14.63;;
12631;SDS011;6381;45.748;12.106;2024-02-21T13:26:07;20.30;;;15.18;;
12631;SDS011;6381;45.748;12.106;2024-02-21T13:28:37;16.60;;;14.82;;
12631;SDS011;6381;45.748;12.106;2024-02-21T13:31:09;16.98;;;15.13;;
12631;SDS011;6381;45.748;12.106;2024-02-21T13:33:39;16.70;;;14.93;;
12631;SDS011;6381;45.748;12.106;2024-02-21T13:36:09;19.33;;;15.65;;
12631;SDS011;6381;45.748;12.106;2024-02-21T13:38:39;24.98;;;20.88;;
12631;SDS011;6381;45.748;12.106;2024-02-21T13:41:09;26.60;;;21.85;;
12631;SDS011;6381;45.748;12.106;2024-02-21T13:43:39;22.23;;;18.92;;
12631;SDS011;6381;45.748;12.106;2024-02-21T13:46:11;16.58;;;14.88;;
12631;SDS011;6381;45.748;12.106;2024-02-21T13:48:41;16.98;;;15.18;;
12631;SDS011;6381;45.748;12.106;2024-02-21T13:51:11;17.42;;;14.68;;
12631;SDS011;6381;45.748;12.106;2024-02-21T13:53:41;25.67;;;20.92;;
12631;SDS011;6381;45.748;12.106;2024-02-21T13:56:11;24.92;;;21.58;;
12631;SDS011;6381;45.748;12.106;2024-02-21T13:58:40;24.98;;;19.58;;
12631;SDS011;6381;45.748;12.106;2024-02-21T14:01:12;26.55;;;19.27;;
12631;SDS011;6381;45.748;12.106;2024-02-21T14:03:43;22.42;;;19.80;;
12631;SDS011;6381;45.748;12.106;2024-02-21T14:06:12;24.00;;;19.73;;
12631;SDS011;6381;45.748;12.106;2024-02-21T14:08:43;30.63;;;26.17;;
12631;SDS011;6381;45.748;12.106;2024-02-21T14:11:13;30.52;;;26.05;;
12631;SDS011;6381;45.748;12.106;2024-02-21T14:13:43;31.73;;;25.15;;
12631;SDS011;6381;45.748;12.106;2024-02-21T14:16:15;28.02;;;22.92;;
12631;SDS011;6381;45.748;12.106;2024-02-21T14:18:45;30.55;;;24.88;;
12631;SDS011;6381;45.748;12.106;2024-02-21T14:21:15;33.00;;;27.10;;
12631;SDS011;6381;45.748;12.106;2024-02-21T14:23:45;30.42;;;26.10;;
12631;SDS011;6381;45.748;12.106;2024-02-21T14:26:15;31.80;;;27.05;;
12631;SDS011;6381;45.748;12.106;2024-02-21T14:28:45;33.08;;;27.08;;
12631;SDS011;6381;45.748;12.106;2024-02-21T14:31:16;31.30;;;26.73;;
12631;SDS011;6381;45.748;12.106;2024-02-21T14:33:46;32.67;;;28.10;;
12631;SDS011;6381;45.748;12.106;2024-02-21T14:36:16;33.50;;;26.50;;
12631;SDS011;6381;45.748;12.106;2024-02-21T14:38:46;30.27;;;27.00;;
12631;SDS011;6381;45.748;12.106;2024-02-21T14:41:16;29.63;;;25.65;;
12631;SDS011;6381;45.748;12.106;2024-02-21T14:43:47;29.38;;;25.15;;
12631;SDS011;6381;45.748;12.106;2024-02-21T14:46:19;27.23;;;23.27;;
12631;SDS011;6381;45.748;12.106;2024-02-21T14:48:48;28.05;;;24.65;;
12631;SDS011;6381;45.748;12.106;2024-02-21T14:51:19;29.98;;;26.52;;
12631;SDS011;6381;45.748;12.106;2024-02-21T14:53:49;31.25;;;26.67;;